Time;durP1;ratioP1;P1;durP2;ratioP2;P2;SDS_P1;SDS_P2;PMS_P1;PMS_P2;Temp;Humidity;BMP_temperature;BMP_pressure;BME280_temperature;BME280_humidity;BME280_pressure;Samples;Min_cycle;Max_cycle;Signal;HPM_P1;HPM_P2
2021/08/19 00:01:05;;;;;;;16.95;12.68;;;17.30;99.90;;;;;;5052668;28;20024;-89
2021/08/19 00:03:31;;;;;;;14.90;11.45;;;17.30;99.90;;;;;;5052617;28;20033;-88
2021/08/19 00:05:57;;;;;;;14.27;12.13;;;17.20;99.90;;;;;;5053166;28;20105;-89
2021/08/19 00:08:23;;;;;;;18.80;15.20;;;17.20;99.90;;;;;;5051418;28;20021;-89
2021/08/19 00:10:49;;;;;;;16.77;13.60;;;17.20;99.90;;;;;;5051528;28;20488;-89
2021/08/19 00:13:16;;;;;;;17.70;14.77;;;17.20;99.90;;;;;;5051858;28;20072;-88
2021/08/19 00:15:42;;;;;;;20.67;14.73;;;17.10;99.90;;;;;;5051612;28;20064;-87
2021/08/19 00:18:08;;;;;;;17.50;14.10;;;17.10;99.90;;;;;;5053220;28;20071;-88
2021/08/19 00:20:34;;;;;;;18.13;13.65;;;17.10;99.90;;;;;;5049765;28;20040;-89
2021/08/19 00:23:01;;;;;;;16.27;12.40;;;17.00;99.90;;;;;;5051544;28;20037;-87
2021/08/19 00:25:29;;;;;;;16.58;12.70;;;17.10;99.90;;;;;;5049020;28;20058;-89
2021/08/19 00:27:55;;;;;;;17.65;13.57;;;17.10;99.90;;;;;;5054002;28;20021;-88
2021/08/19 00:30:21;;;;;;;17.50;13.05;;;17.10;99.90;;;;;;5052859;28;20499;-89
2021/08/19 00:32:47;;;;;;;18.08;13.32;;;17.10;99.90;;;;;;5053256;28;20017;-89
2021/08/19 00:35:13;;;;;;;15.65;12.23;;;17.10;99.90;;;;;;5052909;28;20381;-88
2021/08/19 00:37:39;;;;;;;16.67;12.75;;;17.10;99.90;;;;;;5053386;28;20026;-89
2021/08/19 00:40:06;;;;;;;15.60;12.10;;;17.20;99.90;;;;;;5051288;28;20044;-88
2021/08/19 00:42:33;;;;;;;14.25;11.32;;;17.20;99.90;;;;;;5041018;28;20037;-88
2021/08/19 00:44:59;;;;;;;16.67;11.85;;;17.20;99.90;;;;;;5039913;28;20104;-88
2021/08/19 00:47:31;;;;;;;16.02;12.38;;;17.20;99.90;;;;;;5043810;28;20021;-89
2021/08/19 00:50:01;;;;;;;18.30;14.80;;;17.20;99.90;;;;;;5042184;28;20026;-89
2021/08/19 00:52:31;;;;;;;16.60;13.30;;;17.20;99.90;;;;;;5041263;28;20018;-89
2021/08/19 00:54:58;;;;;;;17.63;14.40;;;17.20;99.90;;;;;;5042519;28;20013;-89
2021/08/19 00:57:24;;;;;;;18.40;14.30;;;17.20;99.90;;;;;;5043655;28;20381;-89
2021/08/19 00:59:52;;;;;;;20.63;14.57;;;17.20;99.90;;;;;;5031424;28;20048;-87
2021/08/19 01:02:20;;;;;;;18.75;14.07;;;17.10;99.90;;;;;;5031276;28;20013;-87
2021/08/19 01:04:47;;;;;;;17.00;13.63;;;17.10;99.90;;;;;;5033077;28;20025;-88
2021/08/19 01:07:14;;;;;;;16.60;13.98;;;17.10;99.90;;;;;;5032898;28;20026;-89
2021/08/19 01:09:41;;;;;;;16.65;12.75;;;17.10;99.90;;;;;;5032403;28;20478;-88
2021/08/19 01:12:17;;;;;;;15.43;12.30;;;17.10;99.90;;;;;;5032299;28;20033;-89
2021/08/19 01:14:44;;;;;;;17.45;13.48;;;17.20;99.90;;;;;;5032978;28;20110;-89
2021/08/19 01:17:13;;;;;;;17.45;13.40;;;17.20;99.90;;;;;;5033875;28;20022;-88
2021/08/19 01:19:39;;;;;;;16.73;12.88;;;17.20;99.90;;;;;;5032393;28;20041;-89
2021/08/19 01:22:05;;;;;;;16.80;12.18;;;17.10;99.90;;;;;;5033520;28;20026;-88
2021/08/19 01:24:32;;;;;;;15.60;12.88;;;17.20;99.90;;;;;;5032837;28;20017;-89
2021/08/19 01:26:58;;;;;;;18.85;14.93;;;17.20;99.90;;;;;;5033655;28;20060;-88
2021/08/19 01:29:24;;;;;;;16.27;12.73;;;17.20;99.90;;;;;;5032384;28;20025;-89
2021/08/19 01:32:02;;;;;;;19.85;14.93;;;17.20;99.90;;;;;;5031922;28;20056;-89
2021/08/19 01:34:29;;;;;;;19.08;14.38;;;17.30;99.90;;;;;;5032319;28;20382;-89
2021/08/19 01:36:56;;;;;;;16.42;12.52;;;17.30;99.90;;;;;;5032476;28;20021;-89
2021/08/19 01:39:22;;;;;;;16.02;13.23;;;17.30;99.90;;;;;;5033112;28;20466;-88
2021/08/19 01:41:49;;;;;;;17.30;12.85;;;17.30;99.90;;;;;;5045554;28;20094;-89
2021/08/19 01:44:19;;;;;;;17.25;13.18;;;17.30;99.90;;;;;;5052513;28;20021;-89
2021/08/19 01:46:57;;;;;;;15.70;11.65;;;17.30;99.90;;;;;;5053879;28;20025;-89
2021/08/19 01:49:23;;;;;;;18.85;13.20;;;17.30;99.90;;;;;;5051928;28;20025;-88
2021/08/19 01:51:51;;;;;;;16.23;12.38;;;17.30;99.90;;;;;;5052136;28;20021;-87
2021/08/19 01:54:17;;;;;;;16.77;12.35;;;17.30;99.90;;;;;;5053143;28;20017;-88
2021/08/19 01:56:42;;;;;;;17.67;12.88;;;17.40;99.90;;;;;;5052229;28;20035;-88
2021/08/19 01:59:08;;;;;;;14.75;11.80;;;17.40;99.90;;;;;;5052154;28;20033;-89
2021/08/19 02:01:34;;;;;;;17.48;13.02;;;17.40;99.90;;;;;;5052087;28;20087;-88
2021/08/19 02:04:03;;;;;;;17.63;13.45;;;17.40;99.90;;;;;;5052014;28;20467;-88
2021/08/19 02:06:29;;;;;;;17.33;12.45;;;17.40;99.90;;;;;;5053375;28;20445;-89
2021/08/19 02:08:55;;;;;;;20.23;13.63;;;17.40;99.90;;;;;;5051926;28;20036;-89
2021/08/19 02:11:20;;;;;;;16.35;12.77;;;17.40;99.90;;;;;;5051404;28;20036;-88
2021/08/19 02:13:47;;;;;;;18.25;13.82;;;17.40;99.90;;;;;;5051660;28;20033;-88
2021/08/19 02:16:13;;;;;;;16.90;12.73;;;17.50;99.90;;;;;;5053133;28;20031;-90
2021/08/19 02:18:39;;;;;;;17.35;12.63;;;17.50;99.90;;;;;;5052084;28;20029;-88
2021/08/19 02:21:05;;;;;;;17.17;12.90;;;17.50;99.90;;;;;;5051750;28;20037;-89
2021/08/19 02:23:31;;;;;;;17.05;12.95;;;17.50;99.90;;;;;;5051842;28;20080;-89
2021/08/19 02:25:56;;;;;;;18.08;13.52;;;17.50;99.90;;;;;;5051815;28;20045;-88
2021/08/19 02:28:22;;;;;;;15.85;12.15;;;17.50;99.90;;;;;;5052067;28;20025;-88
2021/08/19 02:30:48;;;;;;;18.45;13.23;;;17.50;99.90;;;;;;5051744;28;20098;-88
2021/08/19 02:33:13;;;;;;;18.85;14.45;;;17.50;99.90;;;;;;5051730;28;20024;-88
2021/08/19 02:35:40;;;;;;;17.35;13.57;;;17.50;99.90;;;;;;5051778;28;20112;-89
2021/08/19 02:38:06;;;;;;;19.40;14.90;;;17.50;99.90;;;;;;5052989;28;20075;-89
2021/08/19 02:40:40;;;;;;;21.38;15.95;;;17.50;99.90;;;;;;5054203;28;20056;-89
2021/08/19 02:43:06;;;;;;;24.40;16.98;;;17.50;99.90;;;;;;5056306;28;20099;-89
2021/08/19 02:45:33;;;;;;;22.17;17.30;;;17.50;99.90;;;;;;5058889;28;20047;-89
2021/08/19 02:47:59;;;;;;;18.42;15.13;;;17.50;99.90;;;;;;5058651;28;20051;-88
2021/08/19 02:50:26;;;;;;;22.98;17.70;;;17.60;99.90;;;;;;5058808;28;20124;-89
2021/08/19 02:52:52;;;;;;;24.70;18.55;;;17.60;99.90;;;;;;5058593;28;20017;-89
2021/08/19 02:55:17;;;;;;;27.75;20.58;;;17.60;99.90;;;;;;5058754;28;20170;-89
2021/08/19 02:57:43;;;;;;;25.15;21.55;;;17.60;99.90;;;;;;5058646;28;20078;-89
2021/08/19 03:00:10;;;;;;;28.52;21.65;;;17.60;99.90;;;;;;5058480;28;20021;-89
2021/08/19 03:02:36;;;;;;;31.05;23.88;;;17.60;99.90;;;;;;5058380;28;20119;-89
2021/08/19 03:05:02;;;;;;;31.90;23.50;;;17.60;99.90;;;;;;5058722;28;20110;-89
2021/08/19 03:07:29;;;;;;;29.15;22.42;;;17.60;99.90;;;;;;5058442;28;20058;-88
2021/08/19 03:09:54;;;;;;;34.47;25.63;;;17.60;99.90;;;;;;5057970;28;20029;-89
2021/08/19 03:12:21;;;;;;;30.63;24.92;;;17.60;99.90;;;;;;5058328;28;20078;-89
2021/08/19 03:14:46;;;;;;;29.88;22.73;;;17.60;99.90;;;;;;5058406;28;20024;-89
2021/08/19 03:17:12;;;;;;;24.67;21.15;;;17.60;99.90;;;;;;5058113;28;20378;-89
2021/08/19 03:19:38;;;;;;;25.70;19.85;;;17.60;99.90;;;;;;5057516;28;20115;-89
2021/08/19 03:22:05;;;;;;;27.00;20.92;;;17.60;99.90;;;;;;5057979;28;20465;-89
2021/08/19 03:24:31;;;;;;;28.92;22.30;;;17.60;99.90;;;;;;5058053;28;20024;-88
2021/08/19 03:26:58;;;;;;;29.02;21.95;;;17.60;99.90;;;;;;5057986;28;20021;-90
2021/08/19 03:29:24;;;;;;;28.85;20.75;;;17.60;99.90;;;;;;5057927;28;20021;-90
2021/08/19 03:31:50;;;;;;;25.33;20.13;;;17.60;99.90;;;;;;5057890;28;20430;-88
2021/08/19 03:34:16;;;;;;;22.63;18.33;;;17.50;99.90;;;;;;5057971;28;20035;-89
2021/08/19 03:36:42;;;;;;;25.77;19.42;;;17.50;99.90;;;;;;5057612;28;20020;-89
2021/08/19 03:39:08;;;;;;;22.35;17.90;;;17.50;99.90;;;;;;5076166;28;20027;-90
2021/08/19 03:41:33;;;;;;;23.08;18.50;;;17.50;99.90;;;;;;5056918;28;20139;-89
2021/08/19 03:44:00;;;;;;;22.58;17.15;;;17.50;99.90;;;;;;5057687;28;20031;-88
2021/08/19 03:46:25;;;;;;;25.40;17.65;;;17.40;99.90;;;;;;5057475;28;20032;-89
2021/08/19 03:48:51;;;;;;;18.60;15.43;;;17.40;99.90;;;;;;5057675;28;20040;-88
2021/08/19 03:51:17;;;;;;;19.67;15.88;;;17.40;99.90;;;;;;5057685;28;20024;-89
2021/08/19 03:53:43;;;;;;;20.52;15.35;;;17.40;99.90;;;;;;5057136;28;20024;-88
2021/08/19 03:56:09;;;;;;;17.27;14.13;;;17.30;99.90;;;;;;5057442;28;20090;-89
2021/08/19 03:58:36;;;;;;;18.05;14.88;;;17.30;99.90;;;;;;5057431;28;20419;-88
2021/08/19 04:01:02;;;;;;;18.15;13.85;;;17.30;99.90;;;;;;5075234;28;20020;-88
2021/08/19 04:03:28;;;;;;;19.25;13.85;;;17.30;99.90;;;;;;5074570;28;20065;-88
2021/08/19 04:05:53;;;;;;;17.80;13.85;;;17.30;99.90;;;;;;5056609;28;20452;-88
2021/08/19 04:08:20;;;;;;;18.83;13.98;;;17.20;99.90;;;;;;5056483;28;20111;-87
2021/08/19 04:10:46;;;;;;;18.00;14.00;;;17.20;99.90;;;;;;5073593;28;20481;-88
2021/08/19 04:13:13;;;;;;;18.33;13.75;;;17.20;99.90;;;;;;5073908;28;20123;-88
2021/08/19 04:15:39;;;;;;;15.75;12.38;;;17.20;99.90;;;;;;5056270;28;20036;-88
2021/08/19 04:18:05;;;;;;;13.82;10.65;;;17.10;99.90;;;;;;5074333;28;20460;-88
2021/08/19 04:20:31;;;;;;;14.30;9.57;;;17.20;99.90;;;;;;5055868;28;20036;-88
2021/08/19 04:22:57;;;;;;;14.00;9.88;;;17.20;99.90;;;;;;5073289;28;20093;-87
2021/08/19 04:25:23;;;;;;;12.65;9.25;;;17.20;99.90;;;;;;5055365;28;20456;-89
2021/08/19 04:27:48;;;;;;;11.93;8.85;;;17.20;99.90;;;;;;5055916;28;20031;-88
2021/08/19 04:30:14;;;;;;;11.30;8.40;;;17.20;99.90;;;;;;5056716;28;20461;-88
2021/08/19 04:32:42;;;;;;;10.32;7.80;;;17.20;99.90;;;;;;5056647;28;20056;-88
2021/08/19 04:35:09;;;;;;;11.68;8.07;;;17.20;99.90;;;;;;5074561;28;20048;-88
2021/08/19 04:37:35;;;;;;;11.73;8.82;;;17.20;99.90;;;;;;5056330;28;20031;-89
2021/08/19 04:40:03;;;;;;;11.95;9.02;;;17.20;99.90;;;;;;5055769;28;20036;-88
2021/08/19 04:42:30;;;;;;;10.68;9.23;;;17.30;99.90;;;;;;5056508;28;20089;-88
2021/08/19 04:44:56;;;;;;;14.27;9.98;;;17.30;99.90;;;;;;5039739;28;20465;-89
2021/08/19 04:47:22;;;;;;;12.77;10.88;;;17.30;99.90;;;;;;5056368;28;20024;-88
2021/08/19 04:49:48;;;;;;;13.95;10.25;;;17.20;99.90;;;;;;5074358;28;20099;-89
2021/08/19 04:52:13;;;;;;;14.60;9.80;;;17.20;99.90;;;;;;5056350;28;20017;-89
2021/08/19 04:54:39;;;;;;;14.15;10.35;;;17.20;99.90;;;;;;5055782;28;20063;-88
2021/08/19 04:57:05;;;;;;;12.48;9.65;;;17.20;99.90;;;;;;5053355;28;20104;-89
2021/08/19 04:59:31;;;;;;;12.75;9.95;;;17.30;99.90;;;;;;5053567;28;20029;-87
2021/08/19 05:01:57;;;;;;;14.02;10.77;;;17.20;99.90;;;;;;5053818;28;20024;-89
2021/08/19 05:04:26;;;;;;;12.05;9.68;;;17.20;99.90;;;;;;5053566;28;20101;-86
2021/08/19 05:06:54;;;;;;;14.60;10.55;;;17.30;99.90;;;;;;5070993;28;20495;-88
2021/08/19 05:09:20;;;;;;;14.25;10.52;;;17.30;99.90;;;;;;5071378;28;20472;-87
2021/08/19 05:11:46;;;;;;;13.85;10.45;;;17.30;99.90;;;;;;5072075;28;20068;-87
2021/08/19 05:14:11;;;;;;;16.10;12.15;;;17.30;99.90;;;;;;5071355;28;20024;-88
2021/08/19 05:16:37;;;;;;;14.23;10.98;;;17.30;99.90;;;;;;5053957;28;20017;-88
2021/08/19 05:19:03;;;;;;;18.08;13.13;;;17.30;99.90;;;;;;5054827;28;20031;-88
2021/08/19 05:21:29;;;;;;;15.38;12.60;;;17.30;99.90;;;;;;5055650;28;20025;-88
2021/08/19 05:23:59;;;;;;;16.48;12.73;;;17.30;99.90;;;;;;5073534;28;20029;-88
2021/08/19 05:26:24;;;;;;;21.02;14.73;;;17.40;99.90;;;;;;5055860;28;20044;-88
2021/08/19 05:28:51;;;;;;;24.05;17.83;;;17.30;99.90;;;;;;5055681;28;20460;-88
2021/08/19 05:31:17;;;;;;;23.63;18.30;;;17.40;99.90;;;;;;5073315;28;20029;-88
2021/08/19 05:33:43;;;;;;;26.55;18.77;;;17.40;99.90;;;;;;5073619;28;20020;-88
2021/08/19 05:36:09;;;;;;;25.52;20.20;;;17.40;99.90;;;;;;5055680;28;20027;-88
2021/08/19 05:38:39;;;;;;;21.73;17.80;;;17.40;99.90;;;;;;5055598;28;20071;-88
2021/08/19 05:41:06;;;;;;;27.63;20.35;;;17.40;99.90;;;;;;5072802;28;20052;-88
2021/08/19 05:43:32;;;;;;;24.48;19.05;;;17.40;99.90;;;;;;5055566;28;20028;-89
2021/08/19 05:46:01;;;;;;;26.42;18.90;;;17.40;99.90;;;;;;5055543;28;20032;-88
2021/08/19 05:48:27;;;;;;;28.02;19.25;;;17.40;99.90;;;;;;5055727;28;20024;-89
2021/08/19 05:50:57;;;;;;;24.52;18.38;;;17.40;99.90;;;;;;5055393;28;20064;-89
2021/08/19 05:53:22;;;;;;;26.45;18.52;;;17.40;99.90;;;;;;5054975;28;20119;-89
2021/08/19 05:55:48;;;;;;;28.00;19.20;;;17.50;99.90;;;;;;5055511;28;20583;-88
2021/08/19 05:58:14;;;;;;;28.02;20.33;;;17.50;99.90;;;;;;5055866;28;20028;-89
2021/08/19 06:00:44;;;;;;;27.73;19.40;;;17.50;99.90;;;;;;5073597;28;20465;-89
2021/08/19 06:03:10;;;;;;;26.30;19.60;;;17.50;99.90;;;;;;5055426;28;20119;-88
2021/08/19 06:05:39;;;;;;;29.55;22.35;;;17.50;99.90;;;;;;5055025;28;20493;-89
2021/08/19 06:08:05;;;;;;;30.15;20.90;;;17.50;99.90;;;;;;5054788;28;20024;-89
2021/08/19 06:10:31;;;;;;;26.67;19.90;;;17.50;99.90;;;;;;5071386;28;20032;-88
2021/08/19 06:12:57;;;;;;;26.85;20.75;;;17.50;99.90;;;;;;5055405;28;20461;-89
2021/08/19 06:15:23;;;;;;;24.40;20.13;;;17.50;99.90;;;;;;5055398;28;20031;-88
2021/08/19 06:17:49;;;;;;;33.03;23.45;;;17.50;99.90;;;;;;5057964;28;20410;-87
2021/08/19 06:20:14;;;;;;;28.23;19.88;;;17.50;99.90;;;;;;5059244;28;20368;-89
2021/08/19 06:22:42;;;;;;;26.60;19.65;;;17.50;99.90;;;;;;5059168;28;20025;-88
2021/08/19 06:25:08;;;;;;;31.02;20.63;;;17.50;99.90;;;;;;5059122;28;20020;-89
2021/08/19 06:27:34;;;;;;;28.17;20.15;;;17.60;99.90;;;;;;5059251;28;20021;-89
2021/08/19 06:29:59;;;;;;;25.60;19.10;;;17.60;99.90;;;;;;5059423;28;20349;-89
2021/08/19 06:32:25;;;;;;;28.33;21.02;;;17.60;99.90;;;;;;5059177;28;20131;-89
2021/08/19 06:34:51;;;;;;;27.80;20.35;;;17.60;99.90;;;;;;5059079;28;20028;-89
2021/08/19 06:37:16;;;;;;;28.65;21.05;;;17.60;99.90;;;;;;5059642;28;20100;-89
2021/08/19 06:39:42;;;;;;;28.90;20.40;;;17.60;99.90;;;;;;5058968;28;20012;-89
2021/08/19 06:42:08;;;;;;;28.75;21.38;;;17.60;99.90;;;;;;5055321;28;20416;-89
2021/08/19 06:44:34;;;;;;;30.48;22.48;;;17.60;99.90;;;;;;5055476;28;20021;-89
2021/08/19 06:47:00;;;;;;;33.05;23.88;;;17.60;99.90;;;;;;5056314;28;20017;-89
2021/08/19 06:49:25;;;;;;;30.60;22.65;;;17.60;99.90;;;;;;5055467;28;20028;-89
2021/08/19 06:51:52;;;;;;;28.02;20.58;;;17.60;99.90;;;;;;5038816;28;20439;-88
2021/08/19 06:54:18;;;;;;;29.17;20.67;;;17.60;99.90;;;;;;5055533;28;20107;-89
2021/08/19 06:56:44;;;;;;;26.90;19.38;;;17.60;99.90;;;;;;5056607;28;20052;-89
2021/08/19 06:59:11;;;;;;;28.80;19.92;;;17.60;99.90;;;;;;5055405;28;20104;-90
2021/08/19 07:01:36;;;;;;;29.85;20.73;;;17.70;99.90;;;;;;5055399;28;20025;-89
2021/08/19 07:04:02;;;;;;;27.17;21.33;;;17.70;99.90;;;;;;5055354;28;20033;-89
2021/08/19 07:06:28;;;;;;;26.58;20.95;;;17.60;99.90;;;;;;5056189;28;20048;-89
2021/08/19 07:08:54;;;;;;;27.00;20.48;;;17.60;99.90;;;;;;5055135;28;20021;-87
2021/08/19 07:11:20;;;;;;;29.30;20.05;;;17.70;99.90;;;;;;5054757;28;20035;-89
2021/08/19 07:13:50;;;;;;;26.33;20.23;;;17.70;99.90;;;;;;5055310;28;20025;-89
2021/08/19 07:16:16;;;;;;;25.63;21.08;;;17.60;99.90;;;;;;5055215;28;20051;-89
2021/08/19 07:18:42;;;;;;;28.42;20.33;;;17.60;99.90;;;;;;5055079;28;20013;-89
2021/08/19 07:21:08;;;;;;;23.63;18.70;;;17.70;99.90;;;;;;5054958;28;20029;-89
2021/08/19 07:23:34;;;;;;;33.65;22.48;;;17.70;99.90;;;;;;5055802;28;20100;-89
2021/08/19 07:26:00;;;;;;;25.02;20.83;;;17.70;99.90;;;;;;5054737;28;20056;-89
2021/08/19 07:28:26;;;;;;;35.13;23.98;;;17.70;99.90;;;;;;5055109;28;20381;-88
2021/08/19 07:30:53;;;;;;;29.73;21.70;;;17.70;99.90;;;;;;5054701;28;20025;-89
2021/08/19 07:33:19;;;;;;;25.80;20.30;;;17.70;99.90;;;;;;5054977;28;20472;-89
2021/08/19 07:35:48;;;;;;;26.02;19.23;;;17.70;99.90;;;;;;5054607;28;20023;-89
2021/08/19 07:38:17;;;;;;;27.80;19.58;;;17.70;99.90;;;;;;5054702;28;20040;-89
2021/08/19 07:40:45;;;;;;;30.05;21.15;;;17.70;99.90;;;;;;5038029;28;20077;-88
2021/08/19 07:43:14;;;;;;;32.17;23.38;;;17.70;99.90;;;;;;5054627;28;20179;-90
2021/08/19 07:45:40;;;;;;;25.35;21.02;;;17.80;99.90;;;;;;5037774;28;20025;-90
2021/08/19 07:48:12;;;;;;;25.95;20.65;;;17.80;99.90;;;;;;5054508;28;20013;-90
2021/08/19 07:50:38;;;;;;;27.38;21.45;;;17.80;99.90;;;;;;5054647;28;20448;-89
2021/08/19 07:53:07;;;;;;;29.63;21.63;;;17.80;99.90;;;;;;5055258;28;20021;-90
2021/08/19 07:55:34;;;;;;;29.70;21.83;;;17.80;99.90;;;;;;5054361;28;20021;-90
2021/08/19 07:58:06;;;;;;;28.20;21.75;;;17.80;99.90;;;;;;5056111;28;20025;-89
2021/08/19 08:00:34;;;;;;;24.42;19.20;;;17.90;99.90;;;;;;5055643;28;20104;-90
2021/08/19 08:03:00;;;;;;;25.17;19.52;;;17.90;99.90;;;;;;5054106;28;20115;-89
2021/08/19 08:05:29;;;;;;;23.33;20.10;;;18.00;99.90;;;;;;5054720;28;20028;-89
2021/08/19 08:08:05;;;;;;;27.15;19.55;;;18.00;99.90;;;;;;5053469;28;20555;-89
2021/08/19 08:10:31;;;;;;;27.73;21.83;;;18.10;99.90;;;;;;5052785;28;20033;-90
2021/08/19 08:12:58;;;;;;;27.98;20.55;;;18.10;99.90;;;;;;5053216;28;20032;-90
2021/08/19 08:15:25;;;;;;;23.73;20.15;;;18.10;99.90;;;;;;5053157;28;20013;-89
2021/08/19 08:17:54;;;;;;;25.27;18.30;;;18.10;99.90;;;;;;5053219;28;20021;-90
2021/08/19 08:20:20;;;;;;;23.33;17.60;;;18.10;99.90;;;;;;5053889;28;20016;-89
2021/08/19 08:22:50;;;;;;;22.33;17.40;;;18.10;99.90;;;;;;5055360;28;20025;-90
2021/08/19 08:25:19;;;;;;;21.30;18.10;;;18.10;99.90;;;;;;5053066;28;20021;-89
2021/08/19 08:27:59;;;;;;;26.33;19.05;;;18.20;99.90;;;;;;5053858;28;20130;-90
2021/08/19 08:30:26;;;;;;;22.08;17.83;;;18.20;99.90;;;;;;5053158;28;20113;-90
2021/08/19 08:32:52;;;;;;;19.95;16.55;;;18.20;99.90;;;;;;5053543;28;20024;-90
2021/08/19 08:35:20;;;;;;;22.42;17.13;;;18.30;99.90;;;;;;5053244;28;20067;-90
2021/08/19 08:37:48;;;;;;;22.05;18.00;;;18.30;99.90;;;;;;5052095;28;20029;-89
2021/08/19 08:40:18;;;;;;;24.02;18.95;;;18.30;99.90;;;;;;5035867;28;20029;-90
2021/08/19 08:42:45;;;;;;;21.10;17.10;;;18.30;99.90;;;;;;5056776;28;20048;-90
2021/08/19 08:45:16;;;;;;;25.58;18.90;;;18.20;99.90;;;;;;5056561;28;20021;-89
2021/08/19 08:47:43;;;;;;;22.80;17.50;;;18.20;99.90;;;;;;5073237;28;20025;-89
2021/08/19 08:50:10;;;;;;;20.33;16.25;;;18.20;99.90;;;;;;5055011;28;20024;-90
2021/08/19 08:52:40;;;;;;;23.40;18.42;;;18.20;99.90;;;;;;5073482;28;20008;-89
2021/08/19 08:55:07;;;;;;;18.17;16.27;;;18.10;99.90;;;;;;5056812;28;20040;-89
2021/08/19 08:57:39;;;;;;;17.35;13.60;;;18.10;99.90;;;;;;5054505;28;20139;-89
2021/08/19 09:00:07;;;;;;;16.27;13.70;;;18.00;99.90;;;;;;5055238;28;20035;-89
2021/08/19 09:02:36;;;;;;;20.45;16.25;;;17.90;99.90;;;;;;5055185;28;20334;-89
2021/08/19 09:05:23;;;;;;;21.33;14.38;;;17.80;99.90;;;;;;5052831;28;20028;-88
2021/08/19 09:07:56;;;;;;;16.13;13.05;;;17.70;99.90;;;;;;5054263;28;20103;-88
2021/08/19 09:10:27;;;;;;;14.23;12.60;;;17.70;99.90;;;;;;5053704;28;20028;-89
2021/08/19 09:12:53;;;;;;;20.77;16.27;;;17.60;99.90;;;;;;5054127;28;20016;-88
2021/08/19 09:15:25;;;;;;;19.65;15.38;;;17.60;99.90;;;;;;5053948;28;20388;-89
2021/08/19 09:17:53;;;;;;;17.98;15.05;;;17.60;99.90;;;;;;5054226;28;20032;-89
2021/08/19 09:20:34;;;;;;;18.65;14.45;;;17.60;99.90;;;;;;5053537;28;20484;-89
2021/08/19 09:23:02;;;;;;;18.85;15.88;;;17.70;99.90;;;;;;5053982;28;20452;-88
2021/08/19 09:25:45;;;;;;;23.08;17.73;;;17.70;99.90;;;;;;5054011;28;20554;-88
2021/08/19 09:28:24;;;;;;;19.02;15.52;;;17.70;99.90;;;;;;5037888;28;20083;-87
2021/08/19 09:31:19;;;;;;;16.42;13.57;;;17.60;99.90;;;;;;5053828;28;20032;-86
2021/08/19 09:33:46;;;;;;;15.65;12.35;;;17.60;99.90;;;;;;5031566;28;20128;-87
2021/08/19 09:36:12;;;;;;;18.85;13.88;;;17.60;99.90;;;;;;5037060;28;20020;-87
2021/08/19 09:38:43;;;;;;;19.85;14.30;;;17.50;99.90;;;;;;5053758;28;20090;-89
2021/08/19 09:41:17;;;;;;;22.25;16.35;;;17.50;99.90;;;;;;5052847;28;20066;-87
2021/08/19 09:43:49;;;;;;;19.40;15.70;;;17.50;99.90;;;;;;5053716;28;20024;-87
2021/08/19 09:46:17;;;;;;;20.17;17.50;;;17.60;99.90;;;;;;5036805;28;20455;-87
2021/08/19 09:48:44;;;;;;;23.35;18.65;;;17.70;99.90;;;;;;5053378;28;20017;-87
2021/08/19 09:51:11;;;;;;;21.60;16.48;;;17.80;99.90;;;;;;5053322;28;20097;-87
2021/08/19 09:53:52;;;;;;;22.52;17.80;;;17.80;99.90;;;;;;5053036;28;20052;-87
2021/08/19 09:56:32;;;;;;;19.10;16.17;;;17.90;99.90;;;;;;5036628;28;20040;-85
2021/08/19 09:59:22;;;;;;;22.08;17.52;;;18.20;99.90;;;;;;5071587;28;20048;-86
2021/08/19 10:01:53;;;;;;;26.13;18.52;;;18.40;99.90;;;;;;5072197;28;20099;-86
2021/08/19 10:04:20;;;;;;;19.42;17.33;;;18.50;99.90;;;;;;5036732;28;20020;-88
2021/08/19 10:06:47;;;;;;;17.50;14.27;;;18.70;99.90;;;;;;5052977;28;20431;-87
2021/08/19 10:09:17;;;;;;;17.02;14.63;;;18.80;99.90;;;;;;5036478;28;20024;-87
2021/08/19 10:11:48;;;;;;;15.68;13.68;;;18.90;99.90;;;;;;5053172;28;20056;-87
2021/08/19 10:14:17;;;;;;;21.17;15.77;;;19.00;99.90;;;;;;5033344;28;20136;-88
2021/08/19 10:16:43;;;;;;;17.38;13.98;;;19.00;99.90;;;;;;5033607;28;20112;-88
2021/08/19 10:19:36;;;;;;;15.23;12.85;;;19.10;99.90;;;;;;5035669;28;20074;-87
2021/08/19 10:22:04;;;;;;;16.23;13.30;;;19.10;99.90;;;;;;5054057;28;20024;-89
2021/08/19 10:24:34;;;;;;;15.95;13.40;;;19.00;99.90;;;;;;5053529;28;20513;-90
2021/08/19 10:27:18;;;;;;;17.40;14.43;;;18.90;99.90;;;;;;5053550;28;20036;-88
2021/08/19 10:29:51;;;;;;;15.27;13.70;;;18.80;99.90;;;;;;5053216;28;20357;-87
2021/08/19 10:32:24;;;;;;;;;;;18.80;99.90;;;;;;5053338;28;20012;-89
2021/08/19 10:35:18;;;;;;;17.23;14.75;;;18.90;99.90;;;;;;5052736;28;20404;-89
2021/08/19 10:37:49;;;;;;;15.80;13.90;;;19.00;99.90;;;;;;5053173;28;20012;-88
2021/08/19 10:40:24;;;;;;;16.02;13.20;;;19.00;99.90;;;;;;5052229;28;20033;-87
2021/08/19 10:43:32;;;;;;;12.77;11.43;;;19.10;99.90;;;;;;5071024;28;20021;-88
2021/08/19 10:46:36;;;;;;;14.38;12.60;;;19.10;99.90;;;;;;5052500;28;20366;-88
2021/08/19 10:49:05;;;;;;;15.02;13.45;;;19.10;99.90;;;;;;5070666;28;20028;-89
2021/08/19 10:51:31;;;;;;;16.13;14.35;;;19.10;99.90;;;;;;5052334;28;20043;-89
2021/08/19 10:54:00;;;;;;;15.63;13.65;;;19.00;99.90;;;;;;5066547;28;20523;-89
2021/08/19 10:56:45;;;;;;;17.38;15.48;;;19.10;99.90;;;;;;5051602;28;20411;-90
2021/08/19 10:59:59;;;;;;;16.00;14.30;;;19.00;99.90;;;;;;5052615;28;20024;-90
2021/08/19 11:02:54;;;;;;;16.05;13.43;;;18.90;99.90;;;;;;5068936;28;20066;-90
2021/08/19 11:05:26;;;;;;;14.77;13.25;;;18.80;99.90;;;;;;5048100;28;20028;-90
2021/08/19 11:07:56;;;;;;;16.23;13.35;;;18.80;99.90;;;;;;5054375;28;20472;-90
2021/08/19 11:10:29;;;;;;;14.52;12.63;;;18.80;99.90;;;;;;5072398;28;20135;-89
2021/08/19 11:13:07;;;;;;;15.68;14.00;;;18.80;99.90;;;;;;5054511;28;20503;-89
2021/08/19 11:15:37;;;;;;;15.15;13.60;;;18.80;99.90;;;;;;5055462;28;20048;-90
2021/08/19 11:18:03;;;;;;;16.20;14.50;;;18.70;99.90;;;;;;5073244;28;20024;-89
2021/08/19 11:20:32;;;;;;;15.73;14.07;;;18.70;99.90;;;;;;5054790;28;20021;-88
2021/08/19 11:23:11;;;;;;;17.95;14.57;;;18.70;99.90;;;;;;5055308;28;20086;-89
2021/08/19 11:25:48;;;;;;;14.10;12.68;;;18.70;99.90;;;;;;5072981;28;20020;-88
2021/08/19 11:28:43;;;;;;;15.93;13.65;;;18.70;99.90;;;;;;5071770;28;20039;-88
2021/08/19 11:31:24;;;;;;;13.98;12.13;;;18.70;99.90;;;;;;5073360;28;20028;-88
2021/08/19 11:34:08;;;;;;;15.45;13.20;;;18.70;99.90;;;;;;5054850;28;20020;-89
2021/08/19 11:36:38;;;;;;;18.33;15.32;;;18.60;99.90;;;;;;5055378;28;20027;-89
2021/08/19 11:39:07;;;;;;;18.25;15.85;;;18.60;99.90;;;;;;5055208;28;20024;-88
2021/08/19 11:41:37;;;;;;;17.00;15.25;;;18.50;99.90;;;;;;5050537;28;20056;-88
2021/08/19 11:44:06;;;;;;;16.83;14.98;;;18.40;99.90;;;;;;5051261;28;20542;-90
2021/08/19 11:46:33;;;;;;;14.38;12.85;;;18.40;99.90;;;;;;5051949;28;20491;-89
2021/08/19 11:49:09;;;;;;;20.10;15.75;;;18.40;99.90;;;;;;5051817;28;20422;-89
2021/08/19 11:51:37;;;;;;;16.27;14.55;;;18.60;99.90;;;;;;5050965;28;20086;-89
2021/08/19 11:54:07;;;;;;;13.95;12.45;;;18.60;99.90;;;;;;5050790;28;20060;-86
2021/08/19 11:56:46;;;;;;;17.60;14.20;;;18.70;99.90;;;;;;5051201;28;20032;-90
2021/08/19 11:59:13;;;;;;;15.18;13.57;;;18.80;99.90;;;;;;5035804;28;20017;-89
2021/08/19 12:01:48;;;;;;;15.63;13.38;;;18.90;99.90;;;;;;5051865;28;20561;-90
2021/08/19 12:04:21;;;;;;;16.17;14.48;;;19.00;99.90;;;;;;5051309;28;20476;-90
2021/08/19 12:06:47;;;;;;;16.75;14.70;;;19.00;99.90;;;;;;5051727;28;20029;-89
2021/08/19 12:09:20;;;;;;;15.90;13.98;;;19.00;99.90;;;;;;5052051;28;20111;-90
2021/08/19 12:11:48;;;;;;;14.30;12.70;;;19.10;99.90;;;;;;5051950;28;20044;-89
2021/08/19 12:14:16;;;;;;;18.52;14.70;;;19.10;99.90;;;;;;5051503;28;20021;-89
2021/08/19 12:16:51;;;;;;;15.00;13.40;;;19.20;99.90;;;;;;5050521;28;20028;-89
2021/08/19 12:19:27;;;;;;;17.85;14.10;;;19.30;99.90;;;;;;5036941;28;20056;-89
2021/08/19 12:21:55;;;;;;;15.07;13.35;;;19.20;99.90;;;;;;5050959;28;20032;-87
2021/08/19 12:24:33;;;;;;;17.05;13.60;;;19.20;99.90;;;;;;5050263;28;20087;-89
2021/08/19 12:27:17;;;;;;;14.20;11.73;;;19.20;99.90;;;;;;5050164;28;20118;-87
2021/08/19 12:29:51;;;;;;;12.90;11.10;;;19.10;99.90;;;;;;5051030;28;20025;-89
2021/08/19 12:32:23;;;;;;;10.15;9.13;;;19.10;99.90;;;;;;5051901;28;20037;-89
2021/08/19 12:35:00;;;;;;;12.80;11.50;;;19.10;99.90;;;;;;5049614;28;20074;-87
2021/08/19 12:37:29;;;;;;;12.93;11.52;;;19.10;99.90;;;;;;5050983;28;20021;-89